Time;durP1;ratioP1;P1;durP2;ratioP2;P2;SDS_P1;SDS_P2;PMS_P1;PMS_P2;Temp;Humidity;BMP_temperature;BMP_pressure;BME280_temperature;BME280_humidity;BME280_pressure;Samples;Min_cycle;Max_cycle;Signal;HPM_P1;HPM_P2
2022/06/02 04:28:48;;;;;;;;;;;;;;;20.58;45.04;102181.16;6127889;23;19931;-82
2022/06/02 04:31:13;;;;;;;;;;;;;;;20.58;45.03;102173.28;6148943;23;19928;-82
2022/06/02 04:34:05;;;;;;;;;;;;;;;20.58;44.97;102181.16;6146585;23;19909;-81
2022/06/02 04:36:42;;;;;;;;;;;;;;;20.58;44.95;102176.81;6161540;23;19955;-81
2022/06/02 04:44:24;;;;;;;;;;;;;;;20.66;44.91;102185.50;6148386;23;20101;-81
2022/06/02 04:46:49;;;;;;;;;;;;;;;20.74;44.98;102186.38;6154755;23;19928;-82
2022/06/02 05:16:14;;;;;;;;;;;;;;;20.96;44.51;102212.50;6135627;23;19921;-78
2022/06/02 05:18:39;;;;;;;;;;;;;;;21.01;44.75;102207.25;6162955;23;20337;-80
2022/06/02 05:21:11;;;;;;;;;;;;;;;21.02;45.01;102217.72;6134182;23;19944;-79
2022/06/02 05:23:39;;;;;;;;;;;;;;;21.03;45.06;102206.38;6161556;23;19920;-78
2022/06/02 05:26:13;;;;;;;;;;;;;;;21.05;44.92;102204.63;6162957;23;20279;-80
2022/06/02 05:28:53;;;;;;;;;;;;;;;21.04;44.65;102213.38;6160348;23;19915;-80
2022/06/02 05:31:36;;;;;;;;;;;;;;;21.08;44.29;102220.34;6134644;23;20364;-80
2022/06/02 05:34:05;;;;;;;;;;;;;;;21.09;44.09;102224.69;6134594;23;19913;-79
2022/06/02 05:36:59;;;;;;;;;;;;;;;21.13;43.95;102220.31;6135368;23;20297;-80
2022/06/02 05:39:24;;;;;;;;;;;;;;;21.17;43.74;102228.16;6115390;23;19916;-80
2022/06/02 05:41:53;;;;;;;;;;;;;;;21.21;43.51;102220.28;6131095;23;19917;-82
2022/06/02 05:44:25;;;;;;;;;;;;;;;21.24;43.47;102222.91;6131131;23;19909;-82
2022/06/02 05:47:02;;;;;;;;;;;;;;;21.29;43.09;102229.00;6131266;23;20284;-81
2022/06/02 05:49:41;;;;;;;;;;;;;;;21.34;42.92;102227.25;6131369;23;19911;-81
2022/06/02 05:52:15;;;;;;;;;;;;;;;21.44;42.70;102220.25;6155684;23;19915;-81
2022/06/02 05:54:43;;;;;;;;;;;;;;;21.58;42.03;102226.31;6131078;23;19915;-80
2022/06/02 05:57:08;;;;;;;;;;;;;;;21.72;42.00;102227.09;6157319;23;19908;-80
2022/06/02 05:59:46;;;;;;;;;;;;;;;21.93;41.29;102225.28;6131341;23;19988;-80
2022/06/02 06:02:14;;;;;;;;;;;;;;;22.15;40.91;102229.50;6133460;23;19944;-80
2022/06/02 06:04:58;;;;;;;;;;;;;;;22.33;40.12;102230.28;6131278;23;19940;-82
2022/06/02 06:07:43;;;;;;;;;;;;;;;22.51;40.00;102231.88;6156914;23;19912;-79
2022/06/02 06:10:21;;;;;;;;;;;;;;;22.65;39.61;102234.41;6130231;23;19951;-78
2022/06/02 06:13:01;;;;;;;;;;;;;;;22.82;39.40;102239.47;6156888;23;19916;-78
2022/06/02 06:15:45;;;;;;;;;;;;;;;22.92;39.14;102235.88;6130377;23;20314;-78
2022/06/02 06:18:20;;;;;;;;;;;;;;;22.95;39.17;102233.22;6130720;23;19919;-78
2022/06/02 06:21:08;;;;;;;;;;;;;;;23.11;38.55;102228.72;6130701;23;19909;-79
2022/06/02 06:23:52;;;;;;;;;;;;;;;23.15;38.69;102233.94;6089829;23;20317;-78
2022/06/02 06:26:22;;;;;;;;;;;;;;;23.19;38.49;102221.63;6130716;23;20010;-78
2022/06/02 06:29:11;;;;;;;;;;;;;;;23.25;38.28;102226.81;6130611;23;20218;-78
2022/06/02 06:31:45;;;;;;;;;;;;;;;23.32;38.13;102218.00;6090019;23;19909;-79
2022/06/02 06:34:26;;;;;;;;;;;;;;;23.37;38.37;102217.94;6130475;23;19915;-78
2022/06/02 06:37:06;;;;;;;;;;;;;;;23.37;38.41;102223.19;6156663;23;20329;-78
2022/06/02 06:39:43;;;;;;;;;;;;;;;23.39;38.16;102229.28;6130642;23;19913;-79
2022/06/02 06:42:35;;;;;;;;;;;;;;;23.44;37.64;102229.22;6130484;23;20314;-80
2022/06/02 06:45:06;;;;;;;;;;;;;;;23.41;37.89;102227.53;6098024;23;20309;-80
2022/06/02 06:47:42;;;;;;;;;;;;;;;23.44;37.91;102231.84;6130474;23;19920;-81
2022/06/02 06:50:10;;;;;;;;;;;;;;;23.47;37.71;102230.03;6131523;23;19931;-80
2022/06/02 06:52:38;;;;;;;;;;;;;;;23.49;37.74;102237.91;6130836;23;20292;-78
2022/06/02 06:55:04;;;;;;;;;;;;;;;23.48;37.71;102244.06;6130512;23;20340;-80
2022/06/02 06:57:40;;;;;;;;;;;;;;;23.39;37.45;102240.66;6130496;23;19908;-80
2022/06/02 07:00:08;;;;;;;;;;;;;;;23.15;37.87;102246.19;6130427;23;19916;-79
2022/06/02 07:02:50;;;;;;;;;;;;;;;23.31;37.80;102245.13;6156380;23;19992;-80
2022/06/02 07:05:19;;;;;;;;;;;;;;;23.32;37.72;102248.63;6156471;23;19908;-80
2022/06/02 07:07:44;;;;;;;;;;;;;;;23.14;37.92;102258.44;6130456;23;19940;-78
2022/06/02 07:10:13;;;;;;;;;;;;;;;22.34;39.42;102259.13;6130569;23;19909;-78
2022/06/02 07:12:50;;;;;;;;;;;;;;;21.98;40.06;102254.94;6130565;23;19924;-78
2022/06/02 07:15:22;;;;;;;;;;;;;;;22.58;39.23;102257.16;6154941;23;19924;-80
2022/06/02 07:17:56;;;;;;;;;;;;;;;22.25;39.64;102264.41;6131742;23;19908;-79
2022/06/02 07:20:33;;;;;;;;;;;;;;;22.32;39.43;102266.13;6159086;23;20244;-80
2022/06/02 07:23:07;;;;;;;;;;;;;;;22.49;39.27;102263.34;6132878;23;19919;-81
2022/06/02 07:25:36;;;;;;;;;;;;;;;22.57;39.17;102265.94;6134597;23;20202;-80
2022/06/02 07:28:08;;;;;;;;;;;;;;;22.58;39.20;102273.81;6158758;23;19908;-82
2022/06/02 07:30:52;;;;;;;;;;;;;;;22.56;39.18;102266.84;6132374;23;19908;-80
2022/06/02 07:33:32;;;;;;;;;;;;;;;22.54;39.25;102273.84;6132394;23;20330;-80
2022/06/02 07:36:00;;;;;;;;;;;;;;;22.43;39.22;102273.94;6158368;23;19916;-80
2022/06/02 07:38:38;;;;;;;;;;;;;;;22.19;39.39;102278.41;6132255;23;19908;-80
2022/06/02 07:41:06;;;;;;;;;;;;;;;22.20;39.49;102274.03;6132342;23;20035;-79
2022/06/02 07:43:46;;;;;;;;;;;;;;;22.24;39.40;102283.66;6132280;23;19987;-80
2022/06/02 07:46:24;;;;;;;;;;;;;;;22.21;39.27;102281.03;6132041;23;20292;-79
2022/06/02 07:48:50;;;;;;;;;;;;;;;22.18;39.27;102281.91;6132227;23;20380;-80
2022/06/02 07:51:17;;;;;;;;;;;;;;;22.16;39.51;102288.91;6132180;23;19908;-80
2022/06/02 07:53:55;;;;;;;;;;;;;;;22.12;39.24;102283.69;6132247;23;19909;-79
2022/06/02 07:56:26;;;;;;;;;;;;;;;22.12;39.45;102287.19;6132166;23;20278;-80
2022/06/02 07:58:52;;;;;;;;;;;;;;;22.12;39.45;102288.94;6132016;23;19940;-79
2022/06/02 08:01:17;;;;;;;;;;;;;;;22.07;39.37;102298.59;6132077;23;19947;-79
2022/06/02 08:03:48;;;;;;;;;;;;;;;21.82;39.73;102305.66;6131903;23;19959;-79
2022/06/02 08:06:32;;;;;;;;;;;;;;;21.86;39.74;102305.69;6156710;23;19915;-79
2022/06/02 08:09:01;;;;;;;;;;;;;;;21.93;39.59;102303.91;6132127;23;19915;-78
2022/06/02 08:11:45;;;;;;;;;;;;;;;21.94;39.52;102301.25;6132128;23;20276;-79
2022/06/02 08:14:13;;;;;;;;;;;;;;;21.78;39.72;102307.44;6158872;23;19909;-79
2022/06/02 08:16:58;;;;;;;;;;;;;;;21.71;39.92;102311.84;6157960;23;20285;-79
2022/06/02 08:19:39;;;;;;;;;;;;;;;21.80;39.71;102308.31;6158201;23;19908;-79
2022/06/02 08:22:06;;;;;;;;;;;;;;;21.85;39.40;102310.91;6131720;23;20437;-78
2022/06/02 08:24:39;;;;;;;;;;;;;;;21.76;39.51;102310.06;6131888;23;19934;-79
2022/06/02 08:27:20;;;;;;;;;;;;;;;21.76;39.58;102314.44;6131775;23;19909;-79
2022/06/02 08:29:53;;;;;;;;;;;;;;;21.68;39.66;102319.69;6131505;23;19909;-79
2022/06/02 08:32:37;;;;;;;;;;;;;;;21.81;39.60;102317.91;6131807;23;19954;-79
2022/06/02 08:35:10;;;;;;;;;;;;;;;21.85;39.36;102318.78;6132288;23;19916;-78
2022/06/02 08:37:53;;;;;;;;;;;;;;;21.85;39.36;102324.88;6131674;23;19932;-78
2022/06/02 08:40:31;;;;;;;;;;;;;;;21.84;39.35;102323.16;6131881;23;19909;-79
2022/06/02 08:43:02;;;;;;;;;;;;;;;21.84;39.46;102322.25;6131582;23;19913;-79
2022/06/02 08:45:46;;;;;;;;;;;;;;;21.81;39.28;102325.78;6131632;23;19908;-79
2022/06/02 08:48:39;;;;;;;;;;;;;;;21.84;39.34;102325.78;6131654;23;19995;-79
2022/06/02 08:51:07;;;;;;;;;;;;;;;21.80;39.46;102325.75;6158230;23;19915;-79
2022/06/02 08:53:42;;;;;;;;;;;;;;;21.80;39.33;102324.03;6131726;23;19908;-78
2022/06/02 08:56:10;;;;;;;;;;;;;;;21.78;39.54;102326.66;6131460;23;19984;-78
2022/06/02 08:58:44;;;;;;;;;;;;;;;21.80;39.15;102323.16;6131383;23;19919;-78
2022/06/02 09:01:28;;;;;;;;;;;;;;;21.80;39.35;102323.16;6131712;23;19940;-79
2022/06/02 09:04:03;;;;;;;;;;;;;;;21.77;39.28;102329.28;6131522;23;20397;-79
2022/06/02 09:06:48;;;;;;;;;;;;;;;21.77;39.29;102322.31;6131559;23;19984;-79
2022/06/02 09:09:32;;;;;;;;;;;;;;;21.76;39.19;102324.94;6112019;23;20285;-79
2022/06/02 09:12:13;;;;;;;;;;;;;;;21.72;39.21;102334.53;6131528;23;19915;-78
2022/06/02 09:14:44;;;;;;;;;;;;;;;21.73;39.21;102333.69;6131367;23;19909;-79
2022/06/02 09:17:32;;;;;;;;;;;;;;;21.74;39.34;102334.53;6157709;23;19909;-78
2022/06/02 09:20:14;;;;;;;;;;;;;;;21.72;39.23;102329.28;6157480;23;19909;-79
2022/06/02 09:22:48;;;;;;;;;;;;;;;21.71;39.47;102338.03;6131470;23;20344;-78
2022/06/02 09:25:21;;;;;;;;;;;;;;;21.69;39.56;102336.31;6131535;23;19915;-79
2022/06/02 09:28:06;;;;;;;;;;;;;;;21.68;39.49;102337.16;6131266;23;19908;-79
2022/06/02 09:30:31;;;;;;;;;;;;;;;21.68;39.55;102339.78;6157858;23;19909;-80
2022/06/02 09:33:33;;;;;;;;;;;;;;;21.67;39.59;102344.16;6138093;23;19915;-83
2022/06/02 09:36:19;;;;;;;;;;;;;;;21.69;39.48;102345.03;6168672;23;19909;-82
2022/06/02 09:38:55;;;;;;;;;;;;;;;21.66;39.34;102345.03;6137364;23;19908;-83
2022/06/02 09:41:35;;;;;;;;;;;;;;;21.64;39.28;102335.44;6136069;23;19916;-83
2022/06/02 09:44:04;;;;;;;;;;;;;;;21.62;39.24;102337.19;6138498;23;19928;-82
2022/06/02 09:46:48;;;;;;;;;;;;;;;21.60;39.50;102339.84;6138098;23;19908;-83
2022/06/02 09:49:35;;;;;;;;;;;;;;;21.57;39.42;102340.69;6167316;23;19909;-83
2022/06/02 09:52:02;;;;;;;;;;;;;;;21.57;39.48;102339.81;6148034;23;19916;-83
2022/06/02 09:54:31;;;;;;;;;;;;;;;21.57;39.21;102334.59;6167555;23;19909;-83
2022/06/02 09:57:55;;;;;;;;;;;;;;;21.55;39.48;102333.72;6166465;23;20304;-82
2022/06/02 10:00:02;;;;;;;;;;;;;;;21.53;39.24;102338.94;6169077;23;19908;-82
2022/06/02 10:02:33;;;;;;;;;;;;;;;21.52;39.45;102338.97;6136003;23;20317;-85
2022/06/02 10:05:14;;;;;;;;;;;;;;;21.50;39.32;102348.56;6142619;23;19908;-83
2022/06/02 10:07:42;;;;;;;;;;;;;;;21.47;39.48;102344.22;6147530;23;19908;-81
2022/06/02 10:10:10;;;;;;;;;;;;;;;21.47;39.32;102345.94;6145207;23;20321;-82
2022/06/02 10:29:27;;;;;;;;;;;;;;;21.44;39.34;102325.00;5125504;27;19917;-81
2022/06/02 10:31:52;;;;;;;;;;;;;;;21.43;39.40;102334.63;5129054;28;19928;-81
2022/06/02 10:34:37;;;;;;;;;;;;;;;21.43;39.33;102334.63;5128905;28;19912;-82
2022/06/02 10:37:11;;;;;;;;;;;;;;;21.44;39.62;102335.50;5128326;28;19912;-84
2022/06/02 10:39:55;;;;;;;;;;;;;;;21.42;39.44;102322.38;5129344;28;19896;-83
2022/06/02 10:42:26;;;;;;;;;;;;;;;21.43;39.13;102334.63;5131427;28;20390;-82
2022/06/02 10:45:06;;;;;;;;;;;;;;;21.41;39.48;102333.75;5131227;28;19983;-82
2022/06/02 10:48:02;;;;;;;;;;;;;;;21.42;39.30;102326.75;5127517;28;19912;-84
2022/06/02 10:50:40;;;;;;;;;;;;;;;21.41;39.53;102332.84;5128887;28;19920;-82
2022/06/02 10:53:25;;;;;;;;;;;;;;;21.41;39.38;102330.22;5129869;28;19912;-82
2022/06/02 10:56:03;;;;;;;;;;;;;;;21.41;39.63;102338.09;5130966;28;19919;-82
2022/06/02 10:58:28;;;;;;;;;;;;;;;21.40;39.51;102323.25;5130197;28;19987;-84
2022/06/02 11:01:13;;;;;;;;;;;;;;;21.41;39.66;102330.22;5128524;28;19912;-82
2022/06/02 11:03:57;;;;;;;;;;;;;;;21.40;39.53;102325.84;5128455;28;19912;-84
2022/06/02 11:06:52;;;;;;;;;;;;;;;21.40;39.38;102321.47;5124593;28;19912;-82
2022/06/02 11:09:17;;;;;;;;;;;;;;;21.39;39.64;102314.50;5123793;28;19912;-83
2022/06/02 11:12:01;;;;;;;;;;;;;;;21.40;39.60;102325.84;5113305;28;19916;-83
2022/06/02 11:14:42;;;;;;;;;;;;;;;21.42;39.70;102321.53;5107301;28;19919;-84
2022/06/02 11:17:46;;;;;;;;;;;;;;;21.41;39.46;102311.91;5107748;28;19913;-82
2022/06/02 11:20:22;;;;;;;;;;;;;;;21.40;39.37;102307.53;5031654;28;19952;-81
2022/06/02 11:23:06;;;;;;;;;;;;;;;21.38;39.24;102304.91;5040362;28;19950;-84
2022/06/02 11:25:43;;;;;;;;;;;;;;;21.37;39.55;102301.41;5073970;28;19912;-82
2022/06/02 11:28:21;;;;;;;;;;;;;;;21.37;39.50;102301.41;5105471;28;19920;-82
2022/06/02 11:31:01;;;;;;;;;;;;;;;21.39;39.36;102297.94;5097238;28;19916;-83
2022/06/02 11:33:45;;;;;;;;;;;;;;;21.41;39.56;102293.56;5097552;28;19935;-84
2022/06/02 11:36:13;;;;;;;;;;;;;;;21.41;39.70;102296.19;5095450;28;20351;-83
2022/06/02 11:38:44;;;;;;;;;;;;;;;21.40;39.47;102289.19;5095186;28;19912;-82
2022/06/02 11:41:25;;;;;;;;;;;;;;;21.42;39.70;102295.34;5111578;28;19919;-81
2022/06/02 11:43:53;;;;;;;;;;;;;;;21.43;39.78;102302.34;5095283;28;19936;-83
2022/06/02 11:46:21;;;;;;;;;;;;;;;21.42;39.86;102306.66;5112980;28;20000;-83
2022/06/02 11:48:49;;;;;;;;;;;;;;;21.43;39.72;102299.72;5113263;28;19943;-82
2022/06/02 11:51:20;;;;;;;;;;;;;;;21.44;39.88;102297.06;5095942;28;19938;-82
2022/06/02 11:54:04;;;;;;;;;;;;;;;21.44;40.23;102297.06;5096559;28;19983;-82
2022/06/02 11:56:36;;;;;;;;;;;;;;;21.44;39.90;102289.22;5095755;28;19919;-82
2022/06/02 11:59:07;;;;;;;;;;;;;;;21.45;39.96;102288.34;5090919;28;20394;-83
2022/06/02 12:01:40;;;;;;;;;;;;;;;21.45;40.06;102280.50;5091911;28;19918;-82
2022/06/02 12:04:24;;;;;;;;;;;;;;;21.46;40.04;102291.84;5094397;28;19943;-82
2022/06/02 12:06:55;;;;;;;;;;;;;;;21.46;40.01;102289.22;5093292;28;19919;-81
2022/06/02 12:09:36;;;;;;;;;;;;;;;21.46;40.12;102289.22;5094412;28;19919;-82
2022/06/02 12:12:02;;;;;;;;;;;;;;;21.47;40.39;102294.47;5090200;28;20398;-82
2022/06/02 12:14:39;;;;;;;;;;;;;;;21.47;40.13;102294.47;5093660;28;19912;-82
2022/06/02 12:17:23;;;;;;;;;;;;;;;21.47;40.05;102276.13;5116071;28;20275;-83
2022/06/02 12:20:04;;;;;;;;;;;;;;;21.50;39.95;102288.34;5101177;28;19916;-83
2022/06/02 12:22:29;;;;;;;;;;;;;;;21.48;40.12;102284.84;5100795;28;19951;-82
2022/06/02 12:24:55;;;;;;;;;;;;;;;;;;5098057;28;19903;-84
2022/06/02 12:27:26;;;;;;;;;;;;;;;21.48;40.34;102277.84;5098733;28;19920;-82
2022/06/02 12:30:00;;;;;;;;;;;;;;;21.48;40.41;102275.22;5099811;28;19940;-82
2022/06/02 12:32:25;;;;;;;;;;;;;;;;;;5120112;28;19908;-82
2022/06/02 12:35:06;;;;;;;;;;;;;;;21.51;40.59;102282.19;5101207;28;19912;-82
2022/06/02 12:37:31;;;;;;;;;;;;;;;21.49;40.40;102277.00;5101699;28;19967;-81
2022/06/02 12:40:13;;;;;;;;;;;;;;;21.47;40.57;102265.66;5100873;28;19897;-81
2022/06/02 12:42:38;;;;;;;;;;;;;;;;;;5096878;28;20465;-82
2022/06/02 12:45:25;;;;;;;;;;;;;;;21.51;40.67;102276.97;5111852;28;19941;-82
2022/06/02 12:47:59;;;;;;;;;;;;;;;21.50;40.53;102270.88;5095012;28;19916;-82
2022/06/02 12:50:43;;;;;;;;;;;;;;;21.50;41.04;102273.47;5097643;28;19912;-82
2022/06/02 12:53:20;;;;;;;;;;;;;;;21.51;40.94;102272.63;5096724;28;19923;-82
2022/06/02 12:56:03;;;;;;;;;;;;;;;21.52;41.04;102271.72;5113715;28;19919;-82
2022/06/02 12:58:28;;;;;;;;;;;;;;;21.52;41.06;102268.25;5094030;28;19969;-84
2022/06/02 13:00:53;;;;;;;;;;;;;;;21.53;41.18;102270.84;5092196;28;19912;-81
2022/06/02 13:03:22;;;;;;;;;;;;;;;21.53;40.97;102278.69;5090106;28;19912;-82
2022/06/02 13:05:51;;;;;;;;;;;;;;;21.55;41.22;102279.56;5093263;28;19923;-82
2022/06/02 13:08:32;;;;;;;;;;;;;;;21.57;41.15;102276.94;5096058;28;19972;-82
2022/06/02 13:11:22;;;;;;;;;;;;;;;21.57;40.96;102290.91;5088317;28;20322;-82
2022/06/02 13:14:14;;;;;;;;;;;;;;;21.56;41.20;102281.31;5091002;28;19912;-86
2022/06/02 13:16:45;;;;;;;;;;;;;;;21.58;40.94;102268.22;5106816;28;19916;-81
2022/06/02 13:19:31;;;;;;;;;;;;;;;21.59;40.94;102272.59;5088752;28;20010;-82
2022/06/02 13:22:19;;;;;;;;;;;;;;;21.59;40.94;102277.81;5087616;28;19951;-80
2022/06/02 13:25:00;;;;;;;;;;;;;;;21.60;40.98;102271.72;5095252;28;19969;-80
2022/06/02 13:27:43;;;;;;;;;;;;;;;21.60;41.03;102256.00;5078398;28;20318;-80
2022/06/02 13:30:27;;;;;;;;;;;;;;;21.62;41.06;102266.44;5096784;28;19916;-81
2022/06/02 13:33:02;;;;;;;;;;;;;;;21.63;41.15;102265.59;5077946;28;19939;-80
2022/06/02 13:35:30;;;;;;;;;;;;;;;21.64;40.91;102256.84;5101536;28;19912;-82
2022/06/02 13:38:18;;;;;;;;;;;;;;;21.65;40.97;102255.97;5112524;28;19912;-83
2022/06/02 13:40:56;;;;;;;;;;;;;;;21.65;40.90;102253.38;5103271;28;19912;-82
2022/06/02 13:43:31;;;;;;;;;;;;;;;21.67;40.92;102259.47;5085357;28;19919;-82
2022/06/02 13:46:15;;;;;;;;;;;;;;;21.68;41.25;102255.97;5082775;28;19923;-85
2022/06/02 13:48:59;;;;;;;;;;;;;;;21.68;40.96;102253.34;5103889;28;19999;-82
2022/06/02 13:51:43;;;;;;;;;;;;;;;21.69;41.22;102250.72;5086429;28;19916;-83
2022/06/02 14:00:17;;;;;;;;;;;;;;;21.71;41.27;102267.31;5102435;28;20389;-83
2022/06/02 14:03:01;;;;;;;;;;;;;;;21.72;41.26;102257.69;5077952;28;19912;-80
2022/06/02 14:05:45;;;;;;;;;;;;;;;21.72;41.19;102260.31;5079863;28;20050;-81
2022/06/02 14:08:17;;;;;;;;;;;;;;;21.73;41.22;102262.94;5084220;28;19934;-82
2022/06/02 14:10:54;;;;;;;;;;;;;;;21.73;41.33;102251.56;5083054;28;19939;-82
2022/06/02 14:13:38;;;;;;;;;;;;;;;21.74;41.21;102250.69;5082259;28;19919;-81
2022/06/02 14:16:06;;;;;;;;;;;;;;;21.74;41.41;102254.19;5084267;28;19912;-77
2022/06/02 14:18:52;;;;;;;;;;;;;;;21.75;41.18;102249.81;5076044;28;20542;-78
2022/06/02 14:21:32;;;;;;;;;;;;;;;21.75;41.20;102244.56;5035581;28;19912;-78
2022/06/02 14:24:04;;;;;;;;;;;;;;;21.75;41.45;102245.47;5076042;28;19935;-78
2022/06/02 14:26:51;;;;;;;;;;;;;;;21.76;41.50;102235.84;5075931;28;19912;-78
2022/06/02 14:29:23;;;;;;;;;;;;;;;21.76;41.35;102244.56;5094977;28;19927;-78
2022/06/02 14:32:08;;;;;;;;;;;;;;;21.77;41.41;102238.47;5076251;28;19923;-78
2022/06/02 14:34:34;;;;;;;;;;;;;;;21.78;41.22;102240.19;5074554;28;19916;-78
2022/06/02 14:36:59;;;;;;;;;;;;;;;21.80;41.50;102236.66;5075841;28;19912;-78
2022/06/02 14:39:43;;;;;;;;;;;;;;;21.80;41.47;102223.56;5075961;28;19958;-78
2022/06/02 14:42:14;;;;;;;;;;;;;;;21.80;41.48;102228.81;5076780;28;20429;-78
2022/06/02 14:44:46;;;;;;;;;;;;;;;21.81;41.46;102231.44;5075996;28;19961;-78
2022/06/02 14:47:30;;;;;;;;;;;;;;;21.81;41.52;102227.94;5075970;28;19915;-78
2022/06/02 14:50:12;;;;;;;;;;;;;;;21.81;41.44;102231.44;5075992;28;20386;-78
2022/06/02 14:52:40;;;;;;;;;;;;;;;21.83;41.37;102223.56;5076067;28;20264;-78
2022/06/02 14:55:15;;;;;;;;;;;;;;;21.83;41.31;102226.19;5076054;28;19912;-78
2022/06/02 14:58:16;;;;;;;;;;;;;;;21.84;41.53;102225.31;5077688;28;19912;-78
2022/06/02 15:00:50;;;;;;;;;;;;;;;21.85;41.44;102225.31;5016389;28;19913;-78
2022/06/02 15:03:28;;;;;;;;;;;;;;;21.85;41.42;102222.69;5086973;28;19919;-78
2022/06/02 15:05:58;;;;;;;;;;;;;;;21.86;41.38;102220.91;5083345;28;19912;-78
2022/06/02 15:08:41;;;;;;;;;;;;;;;21.85;41.59;102221.81;5080416;28;20330;-78
2022/06/02 15:11:18;;;;;;;;;;;;;;;21.97;41.28;102222.63;5079892;28;19923;-78
2022/06/02 15:13:57;;;;;;;;;;;;;;;21.95;41.61;102220.91;5079854;28;19912;-79
2022/06/02 15:16:40;;;;;;;;;;;;;;;21.95;41.63;102215.66;5099914;28;20253;-78
2022/06/02 15:19:06;;;;;;;;;;;;;;;21.93;41.57;102213.03;5099073;28;20338;-77
2022/06/02 15:21:39;;;;;;;;;;;;;;;21.92;41.82;102211.28;5079482;28;19958;-78
2022/06/02 15:24:23;;;;;;;;;;;;;;;21.94;41.74;102211.28;5096448;28;19912;-79
2022/06/02 15:26:57;;;;;;;;;;;;;;;21.96;41.60;102205.13;5097168;28;19916;-78
2022/06/02 15:29:32;;;;;;;;;;;;;;;21.99;41.65;102199.00;5078912;28;19938;-77
2022/06/02 15:31:58;;;;;;;;;;;;;;;22.01;41.63;102199.00;5059053;28;19927;-77
2022/06/02 15:34:31;;;;;;;;;;;;;;;22.02;41.63;102204.25;5088862;28;19912;-78
2022/06/02 15:37:03;;;;;;;;;;;;;;;22.02;41.52;102216.47;5078950;28;20279;-77
2022/06/02 15:39:31;;;;;;;;;;;;;;;22.01;41.81;102215.59;5078889;28;19996;-79
2022/06/02 15:42:15;;;;;;;;;;;;;;;22.01;41.92;102207.72;5097329;28;19912;-77
2022/06/02 15:45:03;;;;;;;;;;;;;;;22.01;41.68;102205.09;5100170;28;19916;-77
2022/06/02 15:47:29;;;;;;;;;;;;;;;22.00;41.93;102202.50;5046645;28;19916;-77
2022/06/02 15:50:14;;;;;;;;;;;;;;;22.00;42.11;102207.75;5079298;28;20402;-77
2022/06/02 15:52:58;;;;;;;;;;;;;;;21.99;42.05;102209.47;5078764;28;19927;-77
2022/06/02 15:55:35;;;;;;;;;;;;;;;21.97;42.07;102195.50;5079327;28;20004;-77
2022/06/02 15:58:04;;;;;;;;;;;;;;;21.96;42.21;102197.28;5079144;28;19912;-77
2022/06/02 16:00:42;;;;;;;;;;;;;;;21.97;42.00;102203.38;5094406;28;19924;-77
2022/06/02 16:03:25;;;;;;;;;;;;;;;21.96;42.16;102205.13;5084902;28;19916;-77
2022/06/02 16:06:10;;;;;;;;;;;;;;;21.96;42.14;102199.03;5077731;28;19999;-79
2022/06/02 16:12:11;;;;;;;;;;;;;;;21.92;42.05;102189.44;5077181;28;20286;-79
2022/06/02 16:14:46;;;;;;;;;;;;;;;21.90;42.26;102188.59;5058646;28;20000;-79
2022/06/02 16:17:21;;;;;;;;;;;;;;;21.89;42.38;102184.22;5058126;28;20327;-80
2022/06/02 16:20:19;;;;;;;;;;;;;;;21.87;42.29;102178.13;5058160;28;20375;-78
2022/06/02 16:22:56;;;;;;;;;;;;;;;21.84;42.13;102181.66;5014712;28;19924;-78
2022/06/02 16:25:24;;;;;;;;;;;;;;;21.83;41.81;102185.13;5058148;28;20323;-78
2022/06/02 16:28:08;;;;;;;;;;;;;;;21.81;41.66;102179.03;5060159;28;19974;-78
2022/06/02 16:30:36;;;;;;;;;;;;;;;21.80;41.09;102177.31;5060699;28;19912;-79
2022/06/02 16:33:20;;;;;;;;;;;;;;;21.78;41.09;102187.78;5058805;28;19912;-79
2022/06/02 16:35:49;;;;;;;;;;;;;;;21.75;40.96;102181.69;5058393;28;19951;-79
2022/06/02 16:38:17;;;;;;;;;;;;;;;21.73;40.76;102173.84;5076620;28;19995;-78
2022/06/02 16:40:42;;;;;;;;;;;;;;;21.74;40.56;102180.81;5089106;28;19912;-79
2022/06/02 16:43:27;;;;;;;;;;;;;;;21.75;41.47;102187.81;5078230;28;19995;-79
2022/06/02 16:46:11;;;;;;;;;;;;;;;21.76;40.46;102186.91;5080619;28;19919;-78
2022/06/02 16:48:48;;;;;;;;;;;;;;;21.74;40.40;102185.19;5079069;28;19944;-79
2022/06/02 16:51:20;;;;;;;;;;;;;;;21.73;40.24;102184.31;5078888;28;19916;-78
2022/06/02 16:54:08;;;;;;;;;;;;;;;21.74;40.14;102185.19;5096870;28;19912;-79
2022/06/02 16:56:33;;;;;;;;;;;;;;;21.72;39.88;102179.94;5058879;28;19955;-80
2022/06/02 16:59:09;;;;;;;;;;;;;;;21.71;40.06;102177.31;5058548;28;19916;-79
2022/06/02 17:01:38;;;;;;;;;;;;;;;21.71;39.68;102183.47;5058886;28;20311;-78
2022/06/02 17:04:18;;;;;;;;;;;;;;;21.70;39.68;102176.47;5057627;28;20322;-79
2022/06/02 17:06:58;;;;;;;;;;;;;;;21.72;39.78;102179.09;5057980;28;19936;-79
2022/06/02 17:09:26;;;;;;;;;;;;;;;21.71;39.61;102183.47;5058462;28;19913;-79
2022/06/02 17:11:58;;;;;;;;;;;;;;;21.70;39.64;102193.94;5059839;28;19986;-79
2022/06/02 17:14:34;;;;;;;;;;;;;;;21.69;39.48;102190.47;5058246;28;19919;-78
2022/06/02 17:17:23;;;;;;;;;;;;;;;21.70;39.64;102188.69;5057665;28;20510;-79
2022/06/02 17:20:00;;;;;;;;;;;;;;;21.71;39.79;102196.56;5067549;28;19912;-78
2022/06/02 17:22:44;;;;;;;;;;;;;;;21.73;40.03;102193.91;5076925;28;20283;-79
2022/06/02 17:25:29;;;;;;;;;;;;;;;21.72;39.92;102193.03;5078077;28;19919;-79
2022/06/02 17:28:13;;;;;;;;;;;;;;;21.71;39.74;102191.31;5073520;28;20379;-79
2022/06/02 17:30:58;;;;;;;;;;;;;;;21.71;39.83;102193.03;5075051;28;19926;-79
2022/06/02 17:33:42;;;;;;;;;;;;;;;21.71;39.40;102193.94;5077986;28;19912;-80
2022/06/02 17:36:26;;;;;;;;;;;;;;;21.71;39.90;102190.44;5075877;28;20006;-79
2022/06/02 17:38:52;;;;;;;;;;;;;;;21.70;39.78;102184.31;5075118;28;19916;-79
2022/06/02 17:41:25;;;;;;;;;;;;;;;21.72;39.97;102200.03;5073745;28;19913;-79
2022/06/02 17:43:57;;;;;;;;;;;;;;;21.72;39.85;102189.56;5073819;28;20295;-81
2022/06/02 17:46:34;;;;;;;;;;;;;;;21.72;39.81;102193.03;5074129;28;19912;-79
2022/06/02 17:49:07;;;;;;;;;;;;;;;21.68;39.59;102190.47;5077057;28;19916;-80
2022/06/02 17:51:48;;;;;;;;;;;;;;;21.70;39.68;102197.44;5079403;28;19917;-78
2022/06/02 17:54:36;;;;;;;;;;;;;;;21.70;39.79;102194.81;5077304;28;19912;-79
2022/06/02 17:57:01;;;;;;;;;;;;;;;21.70;39.82;102192.19;5078959;28;19919;-82
2022/06/02 17:59:37;;;;;;;;;;;;;;;21.73;39.54;102189.56;5084494;28;19912;-83
2022/06/02 18:02:24;;;;;;;;;;;;;;;21.74;39.84;102191.28;5080746;28;19919;-82
2022/06/02 18:04:58;;;;;;;;;;;;;;;21.76;39.72;102188.69;5078031;28;19916;-80
2022/06/02 18:07:26;;;;;;;;;;;;;;;21.75;39.83;102194.78;5076355;28;19920;-80
2022/06/02 18:10:04;;;;;;;;;;;;;;;21.76;40.31;102196.53;5074146;28;20352;-80
2022/06/02 18:12:48;;;;;;;;;;;;;;;21.74;40.27;102196.53;5073964;28;19952;-81
2022/06/02 18:15:36;;;;;;;;;;;;;;;21.74;40.31;102201.78;5075060;28;20376;-80
2022/06/02 18:18:01;;;;;;;;;;;;;;;21.75;40.41;102194.78;5045634;28;19957;-80
2022/06/02 18:20:41;;;;;;;;;;;;;;;21.75;40.49;102197.41;5074532;28;19912;-81
2022/06/02 18:23:07;;;;;;;;;;;;;;;21.74;40.71;102196.53;5073093;28;19912;-80
2022/06/02 18:25:38;;;;;;;;;;;;;;;21.75;40.81;102200.00;5075062;28;19939;-81
2022/06/02 18:28:03;;;;;;;;;;;;;;;21.73;40.74;102189.56;5073888;28;19920;-80
2022/06/02 18:30:47;;;;;;;;;;;;;;;21.73;40.94;102196.53;5075667;28;19953;-81
2022/06/02 18:33:13;;;;;;;;;;;;;;;21.72;41.01;102193.03;5080126;28;19916;-80
2022/06/02 18:35:52;;;;;;;;;;;;;;;21.72;41.04;102193.03;5084723;28;20292;-81
2022/06/02 18:38:40;;;;;;;;;;;;;;;21.72;41.06;102195.66;5084970;28;19940;-81
2022/06/02 18:41:17;;;;;;;;;;;;;;;21.72;40.93;102198.28;5084373;28;19919;-81
2022/06/02 18:43:48;;;;;;;;;;;;;;;21.71;41.06;102195.66;5084800;28;20322;-81
2022/06/02 18:46:14;;;;;;;;;;;;;;;21.71;41.05;102198.28;5081836;28;20007;-81
2022/06/02 18:48:55;;;;;;;;;;;;;;;21.71;41.19;102200.91;5081352;28;19954;-82
2022/06/02 18:51:39;;;;;;;;;;;;;;;21.71;41.34;102199.19;5080117;28;19963;-79